createdAt,value
2023-04-09T00:00:45.601Z,101531.55
2023-04-09T00:03:34.251Z,101531.67
2023-04-09T00:06:03.056Z,101530.24
2023-04-09T00:08:31.434Z,101531.48
2023-04-09T00:10:59.880Z,101529.50
2023-04-09T00:13:38.619Z,101529.97
2023-04-09T00:16:08.882Z,101526.36
2023-04-09T00:18:37.341Z,101528.39
2023-04-09T00:21:05.930Z,101530.32
2023-04-09T00:23:34.818Z,101529.89
2023-04-09T00:26:03.099Z,101531.02
2023-04-09T00:28:31.577Z,101532.13
2023-04-09T00:30:59.742Z,101530.42
2023-04-09T00:33:28.121Z,101529.69
2023-04-09T00:35:56.437Z,101532.55
2023-04-09T00:38:24.673Z,101534.73
2023-04-09T00:40:53.391Z,101532.47
2023-04-09T00:43:21.857Z,101530.47
2023-04-09T00:45:50.241Z,101532.15
2023-04-09T00:48:18.831Z,101529.10
2023-04-09T00:50:47.179Z,101527.70
2023-04-09T00:53:16.394Z,101529.03
2023-04-09T00:55:46.172Z,101528.84
2023-04-09T00:58:14.876Z,101530.92
2023-04-09T01:00:43.184Z,101525.65
2023-04-09T01:03:11.605Z,101523.17
2023-04-09T01:05:58.984Z,101525.29
2023-04-09T01:08:39.236Z,101524.96
2023-04-09T01:11:49.298Z,101524.14
2023-04-09T01:14:20.320Z,101523.75
2023-04-09T01:16:56.012Z,101518.10
2023-04-09T01:19:33.443Z,101521.32
2023-04-09T01:22:05.932Z,101517.27
2023-04-09T01:25:23.339Z,101516.74
2023-04-09T01:28:15.179Z,101517.61
2023-04-09T01:30:48.203Z,101517.69
2023-04-09T01:33:19.414Z,101521.55
2023-04-09T01:35:49.830Z,101516.52
2023-04-09T01:38:20.220Z,101519.09
2023-04-09T01:40:50.388Z,101518.02
2023-04-09T01:43:19.781Z,101518.01
2023-04-09T01:45:48.878Z,101519.66
2023-04-09T01:48:17.538Z,101517.94
2023-04-09T01:50:46.346Z,101512.72
2023-04-09T01:53:14.640Z,101514.83
2023-04-09T01:55:42.900Z,101511.36
2023-04-09T01:58:11.788Z,101512.27
2023-04-09T02:00:46.939Z,101510.75
2023-04-09T02:03:15.202Z,101510.36
2023-04-09T02:05:56.094Z,101508.61
2023-04-09T02:08:25.803Z,101504.13
2023-04-09T02:10:59.106Z,101502.62
2023-04-09T02:13:28.931Z,101506.23
2023-04-09T02:16:00.287Z,101505.48
2023-04-09T02:18:31.227Z,101507.48
2023-04-09T02:21:00.352Z,101509.96
2023-04-09T02:23:28.546Z,101505.85
2023-04-09T02:25:56.664Z,101512.81
2023-04-09T02:28:25.318Z,101508.16
2023-04-09T02:30:53.521Z,101511.98
2023-04-09T02:33:22.007Z,101515.24
2023-04-09T02:35:50.373Z,101516.54
2023-04-09T02:38:19.246Z,101517.65
2023-04-09T02:40:47.502Z,101515.64
2023-04-09T02:43:15.783Z,101514.90
2023-04-09T02:45:43.950Z,101519.94
2023-04-09T02:48:12.232Z,101522.67
2023-04-09T02:50:41.531Z,101519.25
2023-04-09T02:53:09.808Z,101525.02
2023-04-09T02:55:37.977Z,101522.38
2023-04-09T02:58:06.356Z,101521.70
2023-04-09T03:00:34.545Z,101526.82
2023-04-09T03:03:03.047Z,101531.69
2023-04-09T03:05:31.496Z,101533.36
2023-04-09T03:07:59.668Z,101535.02
2023-04-09T03:10:27.839Z,101535.17
2023-04-09T03:12:56.112Z,101533.37
2023-04-09T03:15:24.391Z,101536.91
2023-04-09T03:17:53.232Z,101538.05
2023-04-09T03:20:22.484Z,101535.33
2023-04-09T03:22:50.753Z,101531.56
2023-04-09T03:25:32.546Z,101531.42
2023-04-09T03:28:02.189Z,101535.12
2023-04-09T03:30:39.388Z,101536.12
2023-04-09T03:33:07.722Z,101538.08
2023-04-09T03:35:40.745Z,101537.67
2023-04-09T03:38:08.972Z,101539.15
2023-04-09T03:40:37.160Z,101540.90
2023-04-09T03:43:05.845Z,101545.33
2023-04-09T03:45:34.627Z,101548.36
2023-04-09T03:48:14.066Z,101554.23
2023-04-09T03:50:42.747Z,101552.82
2023-04-09T03:53:12.259Z,101552.90
2023-04-09T03:55:41.043Z,101555.70
2023-04-09T03:58:11.569Z,101555.77
2023-04-09T04:00:40.363Z,101560.39
2023-04-09T04:03:16.572Z,101559.70
2023-04-09T04:06:11.232Z,101562.34
2023-04-09T04:09:11.839Z,101564.91
2023-04-09T04:11:51.188Z,101566.71
2023-04-09T04:14:20.485Z,101563.38
2023-04-09T04:16:53.263Z,101568.67
2023-04-09T04:19:22.983Z,101568.64
2023-04-09T04:21:52.379Z,101573.65
2023-04-09T04:24:21.269Z,101572.95
2023-04-09T04:26:49.748Z,101573.75
2023-04-09T04:29:19.554Z,101575.07
2023-04-09T04:31:58.803Z,101579.19
2023-04-09T04:34:29.427Z,101578.85
2023-04-09T04:37:09.165Z,101580.85
2023-04-09T04:39:37.461Z,101583.53
2023-04-09T04:42:10.939Z,101582.08
2023-04-09T04:44:39.322Z,101583.20
2023-04-09T04:47:14.041Z,101581.29
2023-04-09T04:49:42.454Z,101585.48
2023-04-09T04:52:11.314Z,101587.73
2023-04-09T04:54:41.131Z,101588.45
2023-04-09T04:57:10.037Z,101587.64
2023-04-09T04:59:41.264Z,101588.21
2023-04-09T05:02:11.884Z,101591.83
2023-04-09T05:04:51.716Z,101592.36
2023-04-09T05:07:20.367Z,101599.71
2023-04-09T05:09:52.268Z,101598.48
2023-04-09T05:12:20.549Z,101602.88
2023-04-09T05:14:52.313Z,101598.81
2023-04-09T05:17:20.964Z,101602.64
2023-04-09T05:19:53.586Z,101601.69
2023-04-09T05:22:26.531Z,101602.23
2023-04-09T05:24:54.947Z,101598.02
2023-04-09T05:27:27.758Z,101596.77
2023-04-09T05:30:01.093Z,101600.83
2023-04-09T05:32:29.651Z,101598.62
2023-04-09T05:34:58.695Z,101604.41
2023-04-09T05:37:27.389Z,101602.81
2023-04-09T05:39:56.527Z,101605.55
2023-04-09T05:42:26.193Z,101602.08
2023-04-09T05:45:02.564Z,101606.59
2023-04-09T05:47:31.466Z,101605.16
2023-04-09T05:50:06.691Z,101605.77
2023-04-09T05:52:35.061Z,101604.58
2023-04-09T05:55:03.959Z,101603.67
2023-04-09T05:57:41.959Z,101601.56
2023-04-09T06:00:11.464Z,101600.08
2023-04-09T06:02:45.799Z,101605.80
2023-04-09T06:05:14.569Z,101607.02
2023-04-09T06:07:42.796Z,101610.70
2023-04-09T06:10:11.538Z,101606.75
2023-04-09T06:12:40.677Z,101606.85
2023-04-09T06:15:09.474Z,101606.27
2023-04-09T06:17:37.738Z,101610.58
2023-04-09T06:20:06.864Z,101610.44
2023-04-09T06:22:34.946Z,101610.72
2023-04-09T06:25:03.744Z,101610.72
2023-04-09T06:27:31.978Z,101609.25
2023-04-09T06:30:00.132Z,101607.65
2023-04-09T06:32:28.531Z,101606.89
2023-04-09T06:34:56.952Z,101611.88
2023-04-09T06:37:25.226Z,101611.94
2023-04-09T06:40:00.961Z,101614.50
2023-04-09T06:42:29.968Z,101614.02
2023-04-09T06:45:08.837Z,101612.64
2023-04-09T06:47:37.252Z,101609.73
2023-04-09T06:50:06.214Z,101612.06
2023-04-09T06:52:34.308Z,101610.66
2023-04-09T06:55:02.814Z,101610.48
2023-04-09T06:57:31.092Z,101606.52
2023-04-09T06:59:59.366Z,101609.04
2023-04-09T07:02:28.040Z,101606.73
2023-04-09T07:04:56.850Z,101608.18
2023-04-09T07:07:25.852Z,101603.57
2023-04-09T07:09:54.211Z,101605.67
2023-04-09T07:12:34.680Z,101600.42
2023-04-09T07:15:05.884Z,101599.04
2023-04-09T07:17:35.151Z,101601.17
2023-04-09T07:20:03.854Z,101602.03
2023-04-09T07:22:32.381Z,101602.89
2023-04-09T07:25:00.775Z,101606.09
2023-04-09T07:27:29.344Z,101603.73
2023-04-09T07:30:00.451Z,101608.19
2023-04-09T07:32:28.854Z,101609.10
2023-04-09T07:34:58.476Z,101605.36
2023-04-09T07:37:27.364Z,101612.59
2023-04-09T07:39:58.100Z,101610.05
2023-04-09T07:42:29.790Z,101614.64
2023-04-09T07:44:58.702Z,101613.64
2023-04-09T07:47:27.333Z,101612.05
2023-04-09T07:49:55.918Z,101614.13
2023-04-09T07:52:25.259Z,101618.13
2023-04-09T07:54:55.125Z,101618.34
2023-04-09T07:57:23.513Z,101620.80
2023-04-09T07:59:54.314Z,101620.40
2023-04-09T08:02:24.415Z,101622.91
2023-04-09T08:04:52.893Z,101623.41
2023-04-09T08:07:21.450Z,101624.08
2023-04-09T08:09:49.698Z,101621.74
2023-04-09T08:12:18.180Z,101621.70
2023-04-09T08:14:46.543Z,101621.23
2023-04-09T08:17:14.735Z,101621.84
2023-04-09T08:19:42.792Z,101619.53
2023-04-09T08:22:11.457Z,101618.75
2023-04-09T08:24:41.592Z,101618.91
2023-04-09T08:27:09.988Z,101618.20
2023-04-09T08:29:39.417Z,101616.19
2023-04-09T08:32:08.322Z,101618.63
2023-04-09T08:34:36.963Z,101611.26
2023-04-09T08:37:05.109Z,101609.63
2023-04-09T08:39:33.837Z,101604.30
2023-04-09T08:42:02.668Z,101607.74
2023-04-09T08:44:31.314Z,101606.40
2023-04-09T08:47:00.588Z,101605.37
2023-04-09T08:49:28.874Z,101604.14
2023-04-09T08:51:57.251Z,101602.39
2023-04-09T08:54:26.989Z,101601.50
2023-04-09T08:56:55.079Z,101604.33
2023-04-09T08:59:23.251Z,101597.84
2023-04-09T09:02:10.541Z,101599.67
2023-04-09T09:04:49.938Z,101597.48
2023-04-09T09:07:18.061Z,101593.09
2023-04-09T09:09:55.870Z,101589.59
2023-04-09T09:12:38.664Z,101583.93
2023-04-09T09:15:27.187Z,101585.35
2023-04-09T09:18:00.764Z,101584.34
2023-04-09T09:20:29.365Z,101582.40
2023-04-09T09:22:57.853Z,101581.38
2023-04-09T09:25:26.901Z,101581.57
2023-04-09T09:27:55.458Z,101577.56
2023-04-09T09:30:26.250Z,101576.11
2023-04-09T09:33:13.390Z,101571.98
2023-04-09T09:35:57.933Z,101575.22
2023-04-09T09:38:26.300Z,101576.92
2023-04-09T09:40:54.395Z,101577.55
2023-04-09T09:43:22.896Z,101578.14
2023-04-09T09:45:51.178Z,101577.99
2023-04-09T09:48:19.295Z,101579.28
2023-04-09T09:50:49.169Z,101572.58
2023-04-09T09:53:23.260Z,101570.34
2023-04-09T09:55:57.439Z,101571.14
2023-04-09T09:58:35.791Z,101573.92
2023-04-09T10:01:10.901Z,101571.81
2023-04-09T10:03:40.378Z,101565.47
2023-04-09T10:06:10.141Z,101569.45
2023-04-09T10:08:41.902Z,101565.89
2023-04-09T10:11:10.628Z,101565.84
2023-04-09T10:13:52.751Z,101563.67
2023-04-09T10:16:23.510Z,101563.81
2023-04-09T10:18:52.296Z,101560.28
2023-04-09T10:21:47.789Z,101562.52
2023-04-09T10:24:17.251Z,101551.23
2023-04-09T10:26:46.160Z,101551.97
2023-04-09T10:29:16.754Z,101550.15
2023-04-09T10:32:04.073Z,101550.02
2023-04-09T10:34:36.549Z,101547.13
2023-04-09T10:37:08.690Z,101544.08
2023-04-09T10:39:51.045Z,101545.37
2023-04-09T10:42:27.515Z,101538.54
2023-04-09T10:45:14.547Z,101534.80
2023-04-09T10:47:44.222Z,101533.38
2023-04-09T10:50:28.188Z,101534.02
2023-04-09T10:53:00.913Z,101528.40
2023-04-09T10:55:39.487Z,101526.73
2023-04-09T10:58:12.322Z,101522.73
2023-04-09T11:00:43.508Z,101523.79
2023-04-09T11:03:30.818Z,101517.34
2023-04-09T11:06:06.719Z,101514.23
2023-04-09T11:08:36.462Z,101515.04
2023-04-09T11:11:04.981Z,101512.20
2023-04-09T11:13:34.460Z,101509.26
2023-04-09T11:16:07.030Z,101509.93
2023-04-09T11:18:37.376Z,101507.77
2023-04-09T11:21:06.084Z,101506.52
2023-04-09T11:23:35.153Z,101501.86
2023-04-09T11:26:03.396Z,101500.52
2023-04-09T11:28:31.531Z,101500.69
2023-04-09T11:30:59.708Z,101496.89
2023-04-09T11:33:34.623Z,101495.15
2023-04-09T11:36:05.800Z,101494.86
2023-04-09T11:38:34.026Z,101493.15
2023-04-09T11:41:02.368Z,101491.71
2023-04-09T11:43:30.515Z,101495.15
2023-04-09T11:45:59.598Z,101496.95
2023-04-09T11:48:28.092Z,101493.47
2023-04-09T11:50:57.308Z,101496.07
2023-04-09T11:53:31.216Z,101491.64
2023-04-09T11:55:59.706Z,101492.90
2023-04-09T11:58:28.138Z,101493.98
2023-04-09T12:00:59.067Z,101488.84
2023-04-09T12:03:33.418Z,101492.26
2023-04-09T12:06:03.807Z,101488.73
2023-04-09T12:08:35.179Z,101486.53
2023-04-09T12:11:15.626Z,101486.80
2023-04-09T12:13:45.852Z,101483.57
2023-04-09T12:16:14.891Z,101481.36
2023-04-09T12:18:43.374Z,101479.85
2023-04-09T12:21:11.659Z,101474.88
2023-04-09T12:23:39.766Z,101470.98
2023-04-09T12:26:08.338Z,101471.33
2023-04-09T12:28:37.130Z,101475.61
2023-04-09T12:31:05.356Z,101474.02
2023-04-09T12:33:34.170Z,101470.88
2023-04-09T12:36:02.641Z,101470.80
2023-04-09T12:38:31.308Z,101464.09
2023-04-09T12:40:59.509Z,101464.20
2023-04-09T12:43:27.894Z,101463.82
2023-04-09T12:45:56.225Z,101458.23
2023-04-09T12:48:24.403Z,101456.23
2023-04-09T12:50:52.611Z,101451.27
2023-04-09T12:53:21.342Z,101449.83
2023-04-09T12:55:49.559Z,101445.10
2023-04-09T12:58:17.834Z,101442.80
2023-04-09T13:00:46.372Z,101434.77
2023-04-09T13:03:17.031Z,101434.92
2023-04-09T13:05:45.452Z,101429.08
2023-04-09T13:08:13.721Z,101429.92
2023-04-09T13:10:42.390Z,101426.09
2023-04-09T13:13:14.046Z,101426.29
2023-04-09T13:15:46.492Z,101425.45
2023-04-09T13:18:14.664Z,101426.60
2023-04-09T13:20:42.866Z,101427.16
2023-04-09T13:23:11.029Z,101423.17
2023-04-09T13:25:39.543Z,101424.30
2023-04-09T13:28:07.691Z,101421.23
2023-04-09T13:30:36.123Z,101418.65
2023-04-09T13:33:04.389Z,101419.74
2023-04-09T13:35:33.159Z,101420.94
2023-04-09T13:38:01.332Z,101416.48
2023-04-09T13:40:29.463Z,101420.06
2023-04-09T13:42:57.872Z,101416.15
2023-04-09T13:45:26.311Z,101417.09
2023-04-09T13:47:54.490Z,101416.55
2023-04-09T13:50:22.795Z,101415.45
2023-04-09T13:52:51.118Z,101411.41
2023-04-09T13:55:19.357Z,101409.10
2023-04-09T13:57:47.627Z,101406.42
2023-04-09T14:00:16.010Z,101402.88
2023-04-09T14:02:44.377Z,101400.08
2023-04-09T14:05:12.852Z,101395.59
2023-04-09T14:07:41.057Z,101397.17
2023-04-09T14:10:09.568Z,101394.64
2023-04-09T14:12:37.740Z,101393.60
2023-04-09T14:15:06.973Z,101391.23
2023-04-09T14:17:35.086Z,101391.11
2023-04-09T14:20:06.101Z,101389.91
2023-04-09T14:22:34.235Z,101391.79
2023-04-09T14:25:02.973Z,101389.00
2023-04-09T14:27:31.163Z,101391.42
2023-04-09T14:29:59.405Z,101386.06
2023-04-09T14:32:27.544Z,101384.29
2023-04-09T14:34:56.006Z,101384.70
2023-04-09T14:37:24.205Z,101385.13
2023-04-09T14:39:52.298Z,101381.83
2023-04-09T14:42:21.088Z,101381.30
2023-04-09T14:44:49.361Z,101377.88
2023-04-09T14:47:17.572Z,101378.20
2023-04-09T14:49:45.706Z,101374.65
2023-04-09T14:52:14.001Z,101372.12
2023-04-09T14:54:42.378Z,101374.70
2023-04-09T14:57:10.493Z,101371.36
2023-04-09T14:59:38.586Z,101365.17
2023-04-09T15:02:06.820Z,101367.71
2023-04-09T15:04:35.113Z,101364.70
2023-04-09T15:07:03.341Z,101360.96
2023-04-09T15:09:31.869Z,101360.11
2023-04-09T15:12:00.010Z,101355.00
2023-04-09T15:14:31.713Z,101351.89
2023-04-09T15:16:59.829Z,101351.98
2023-04-09T15:19:28.063Z,101352.39
2023-04-09T15:21:56.891Z,101352.13
2023-04-09T15:24:25.007Z,101352.65
2023-04-09T15:26:53.402Z,101346.20
2023-04-09T15:29:21.617Z,101347.52
2023-04-09T15:31:53.167Z,101345.86
2023-04-09T15:34:21.540Z,101338.52
2023-04-09T15:36:49.808Z,101344.69
2023-04-09T15:39:18.498Z,101341.41
2023-04-09T15:41:46.630Z,101339.61
2023-04-09T15:44:14.895Z,101341.92
2023-04-09T15:46:43.119Z,101339.34
2023-04-09T15:49:11.483Z,101338.14
2023-04-09T15:51:39.784Z,101337.23
2023-04-09T15:54:08.038Z,101339.29
2023-04-09T15:56:40.977Z,101338.33
2023-04-09T15:59:09.125Z,101334.58
2023-04-09T16:01:37.340Z,101331.84
2023-04-09T16:04:05.753Z,101332.66
2023-04-09T16:06:34.052Z,101331.11
2023-04-09T16:09:02.362Z,101327.48
2023-04-09T16:11:30.810Z,101331.02
2023-04-09T16:13:59.094Z,101327.49
2023-04-09T16:16:27.698Z,101325.61
2023-04-09T16:18:56.329Z,101324.89
2023-04-09T16:21:24.520Z,101325.77
2023-04-09T16:23:53.716Z,101327.84
2023-04-09T16:26:22.301Z,101329.52
2023-04-09T16:28:50.584Z,101328.00
2023-04-09T16:31:19.086Z,101330.29
2023-04-09T16:33:48.283Z,101328.68
2023-04-09T16:36:16.603Z,101330.88
2023-04-09T16:38:44.910Z,101334.33
2023-04-09T16:41:13.193Z,101337.04
2023-04-09T16:43:41.492Z,101337.29
2023-04-09T16:46:10.951Z,101335.14
2023-04-09T16:48:41.965Z,101337.69
2023-04-09T16:51:10.118Z,101341.11
2023-04-09T16:53:40.159Z,101339.48
2023-04-09T16:56:08.794Z,101341.71
2023-04-09T16:58:37.984Z,101345.57
2023-04-09T17:01:06.549Z,101347.65
2023-04-09T17:03:34.898Z,101349.34
2023-04-09T17:06:04.809Z,101349.93
2023-04-09T17:08:33.126Z,101356.65
2023-04-09T17:11:04.384Z,101359.05
2023-04-09T17:13:35.541Z,101359.67
2023-04-09T17:16:04.000Z,101361.88
2023-04-09T17:18:32.524Z,101359.80
2023-04-09T17:21:01.002Z,101359.12
2023-04-09T17:23:29.130Z,101365.70
2023-04-09T17:25:57.793Z,101367.31
2023-04-09T17:28:26.373Z,101374.20
2023-04-09T17:30:54.704Z,101375.98
2023-04-09T17:33:22.855Z,101380.00
2023-04-09T17:35:51.329Z,101384.20
2023-04-09T17:38:21.667Z,101388.62
2023-04-09T17:40:49.914Z,101396.61
2023-04-09T17:43:18.479Z,101395.63
2023-04-09T17:45:46.649Z,101395.48
2023-04-09T17:48:14.903Z,101396.41
2023-04-09T17:50:43.031Z,101393.73
2023-04-09T17:53:11.712Z,101395.56
2023-04-09T17:55:46.827Z,101396.39
2023-04-09T17:58:15.519Z,101398.90
2023-04-09T18:00:44.498Z,101404.59
2023-04-09T18:03:13.235Z,101406.77
2023-04-09T18:05:42.204Z,101407.50
2023-04-09T18:08:10.547Z,101407.80
2023-04-09T18:10:38.695Z,101410.70
2023-04-09T18:13:06.791Z,101413.02
2023-04-09T18:15:34.965Z,101411.91
2023-04-09T18:18:03.364Z,101415.95
2023-04-09T18:20:32.027Z,101419.73
2023-04-09T18:23:00.219Z,101417.65
2023-04-09T18:25:28.925Z,101419.46
2023-04-09T18:27:57.158Z,101420.34
2023-04-09T18:30:26.419Z,101419.09
2023-04-09T18:32:54.919Z,101420.25
2023-04-09T18:35:23.363Z,101419.30
2023-04-09T18:37:51.467Z,101421.16
2023-04-09T18:40:20.369Z,101419.15
2023-04-09T18:42:52.544Z,101416.30
2023-04-09T18:45:20.821Z,101413.83
2023-04-09T18:47:49.221Z,101413.56
2023-04-09T18:50:18.815Z,101408.58
2023-04-09T18:52:47.217Z,101409.44
2023-04-09T18:55:16.484Z,101405.77
2023-04-09T18:57:44.594Z,101406.48
2023-04-09T19:00:13.595Z,101407.15
2023-04-09T19:02:42.877Z,101406.50
2023-04-09T19:05:11.294Z,101403.92
2023-04-09T19:07:39.598Z,101404.27
2023-04-09T19:10:07.928Z,101404.69
2023-04-09T19:12:36.381Z,101406.71
2023-04-09T19:15:05.025Z,101406.30
2023-04-09T19:17:34.112Z,101409.66
2023-04-09T19:20:03.045Z,101408.20
2023-04-09T19:22:31.232Z,101403.59
2023-04-09T19:24:59.325Z,101407.56
2023-04-09T19:27:27.503Z,101407.70
2023-04-09T19:29:58.875Z,101408.37
2023-04-09T19:32:27.242Z,101401.94
2023-04-09T19:34:56.012Z,101402.52
2023-04-09T19:37:28.203Z,101404.73
2023-04-09T19:39:57.805Z,101401.21
2023-04-09T19:42:28.699Z,101404.81
2023-04-09T19:44:56.956Z,101401.21
2023-04-09T19:47:25.228Z,101401.70
2023-04-09T19:49:54.612Z,101403.27
2023-04-09T19:52:22.851Z,101407.34
2023-04-09T19:54:55.632Z,101407.02
2023-04-09T19:57:24.111Z,101408.19
2023-04-09T19:59:52.590Z,101409.17
2023-04-09T20:02:20.896Z,101406.27
2023-04-09T20:04:50.682Z,101404.98
2023-04-09T20:07:18.851Z,101400.13
2023-04-09T20:09:47.340Z,101399.33
2023-04-09T20:12:15.716Z,101396.41
2023-04-09T20:14:44.918Z,101391.70
2023-04-09T20:17:13.696Z,101395.15
2023-04-09T20:19:41.870Z,101393.51
2023-04-09T20:22:10.046Z,101390.60
2023-04-09T20:24:38.624Z,101398.99
2023-04-09T20:27:07.014Z,101396.81
2023-04-09T20:29:35.390Z,101396.70
2023-04-09T20:32:03.581Z,101398.24
2023-04-09T20:34:32.870Z,101397.63
2023-04-09T20:37:01.848Z,101398.98
2023-04-09T20:39:31.365Z,101398.28
2023-04-09T20:41:59.680Z,101396.32
2023-04-09T20:44:29.052Z,101394.16
2023-04-09T20:46:57.338Z,101394.85
2023-04-09T20:49:25.690Z,101390.54
2023-04-09T20:51:54.272Z,101391.31
2023-04-09T20:54:23.379Z,101388.15
2023-04-09T20:56:51.954Z,101386.38
2023-04-09T20:59:20.629Z,101382.52
2023-04-09T21:01:49.161Z,101383.79
2023-04-09T21:04:17.737Z,101386.20
2023-04-09T21:06:46.284Z,101385.63
2023-04-09T21:09:14.450Z,101384.66
2023-04-09T21:11:42.834Z,101385.83
2023-04-09T21:14:12.958Z,101387.05
2023-04-09T21:16:41.414Z,101385.63
2023-04-09T21:19:09.814Z,101386.25
2023-04-09T21:21:38.219Z,101385.70
2023-04-09T21:24:06.371Z,101384.16
2023-04-09T21:26:49.194Z,101384.16
2023-04-09T21:29:21.315Z,101384.64
2023-04-09T21:31:50.140Z,101380.81
2023-04-09T21:34:18.315Z,101383.86
2023-04-09T21:36:46.815Z,101382.66
2023-04-09T21:39:15.069Z,101378.30
2023-04-09T21:41:43.961Z,101381.14
2023-04-09T21:44:13.668Z,101379.70
2023-04-09T21:46:42.404Z,101378.29
2023-04-09T21:49:11.945Z,101375.46
2023-04-09T21:51:41.274Z,101371.89
2023-04-09T21:54:10.259Z,101368.42
2023-04-09T21:56:38.558Z,101369.55
2023-04-09T21:59:06.916Z,101370.80
2023-04-09T22:01:35.581Z,101368.90
2023-04-09T22:04:04.426Z,101367.83
2023-04-09T22:06:33.892Z,101367.80
2023-04-09T22:09:02.566Z,101369.45
2023-04-09T22:11:31.063Z,101366.36
2023-04-09T22:13:59.234Z,101367.28
2023-04-09T22:16:27.625Z,101370.65
2023-04-09T22:18:57.151Z,101371.88
2023-04-09T22:21:26.640Z,101369.42
2023-04-09T22:23:54.899Z,101367.48
2023-04-09T22:26:24.194Z,101367.29
2023-04-09T22:28:52.764Z,101368.23
2023-04-09T22:31:21.925Z,101368.80
2023-04-09T22:33:50.145Z,101369.06
2023-04-09T22:36:18.361Z,101368.32
2023-04-09T22:38:46.696Z,101364.52
2023-04-09T22:41:16.198Z,101361.79
2023-04-09T22:43:44.375Z,101361.70
2023-04-09T22:46:12.884Z,101360.98
2023-04-09T22:48:44.928Z,101359.12
2023-04-09T22:51:14.320Z,101359.58
2023-04-09T22:53:42.503Z,101357.29
2023-04-09T22:56:10.799Z,101360.72
2023-04-09T22:58:39.661Z,101358.73
2023-04-09T23:01:08.140Z,101355.33
2023-04-09T23:03:36.539Z,101353.01
2023-04-09T23:06:05.245Z,101351.14
2023-04-09T23:08:33.409Z,101348.83
2023-04-09T23:11:01.712Z,101354.36
2023-04-09T23:13:29.904Z,101349.19
2023-04-09T23:15:58.013Z,101349.16
2023-04-09T23:18:26.136Z,101348.52
2023-04-09T23:20:54.388Z,101349.44
2023-04-09T23:23:22.535Z,101345.43
2023-04-09T23:25:50.900Z,101341.98
2023-04-09T23:28:19.072Z,101342.52
2023-04-09T23:30:47.460Z,101341.58
2023-04-09T23:33:15.627Z,101339.56
2023-04-09T23:35:43.913Z,101339.95
2023-04-09T23:38:12.394Z,101340.74
2023-04-09T23:40:40.670Z,101339.20
2023-04-09T23:43:09.163Z,101336.92
2023-04-09T23:45:37.424Z,101334.46
2023-04-09T23:48:07.579Z,101330.23
2023-04-09T23:50:40.106Z,101327.52
2023-04-09T23:53:08.739Z,101332.45
2023-04-09T23:55:38.709Z,101331.51
2023-04-09T23:58:07.273Z,101329.35
